createdAt,value
2018-08-09T00:04:41.513Z,6.30
2018-08-09T00:09:46.356Z,6.45
2018-08-09T00:14:51.056Z,6.83
2018-08-09T00:19:55.799Z,6.22
2018-08-09T00:25:00.567Z,5.62
2018-08-09T00:30:06.447Z,6.03
2018-08-09T00:35:11.234Z,5.33
2018-08-09T00:40:16.177Z,5.95
2018-08-09T00:45:21.014Z,5.60
2018-08-09T00:50:25.830Z,5.67
2018-08-09T00:55:30.585Z,6.17
2018-08-09T01:00:36.633Z,5.45
2018-08-09T01:05:41.291Z,5.47
2018-08-09T01:10:45.988Z,6.35
2018-08-09T01:15:50.801Z,5.95
2018-08-09T01:20:55.684Z,5.90
2018-08-09T01:26:00.416Z,5.78
2018-08-09T01:31:05.359Z,7.28
2018-08-09T01:36:10.106Z,7.17
2018-08-09T01:41:14.843Z,7.62
2018-08-09T01:46:19.543Z,7.22
2018-08-09T01:51:25.439Z,7.15
2018-08-09T01:56:30.264Z,7.47
2018-08-09T02:01:35.242Z,7.70
2018-08-09T02:06:40.296Z,7.90
2018-08-09T02:11:45.018Z,7.97
2018-08-09T02:16:50.042Z,7.25
2018-08-09T02:21:54.884Z,7.55
2018-08-09T02:27:00.680Z,7.50
2018-08-09T02:32:05.282Z,7.10
2018-08-09T02:37:16.912Z,6.85
2018-08-09T02:42:21.597Z,7.17
2018-08-09T02:47:26.213Z,7.05
2018-08-09T02:52:31.684Z,5.87
2018-08-09T02:57:36.673Z,6.40
2018-08-09T03:02:42.742Z,7.00
2018-08-09T03:07:47.512Z,5.80
2018-08-09T03:12:52.382Z,6.28
2018-08-09T03:17:57.335Z,5.90
2018-08-09T03:23:01.932Z,6.55
2018-08-09T03:28:06.753Z,5.70
2018-08-09T03:33:12.293Z,5.83
2018-08-09T03:38:17.261Z,5.97
2018-08-09T03:43:22.233Z,5.72
2018-08-09T03:48:26.928Z,5.28
2018-08-09T03:53:31.656Z,5.85
2018-08-09T03:58:36.417Z,6.40
2018-08-09T04:03:41.185Z,5.20
2018-08-09T04:08:46.455Z,6.62
2018-08-09T04:13:51.089Z,6.30
2018-08-09T04:18:55.789Z,6.47
2018-08-09T04:24:00.523Z,6.35
2018-08-09T04:29:05.475Z,6.72
2018-08-09T04:34:10.324Z,7.00
2018-08-09T04:39:15.239Z,7.55
2018-08-09T04:44:20.102Z,7.22
2018-08-09T04:49:24.992Z,6.55
2018-08-09T04:54:29.623Z,6.72
2018-08-09T04:59:34.396Z,7.50
2018-08-09T05:04:39.121Z,7.08
2018-08-09T05:09:44.057Z,7.15
2018-08-09T05:14:49.032Z,7.20
2018-08-09T05:19:53.854Z,7.22
2018-08-09T05:24:58.458Z,7.28
2018-08-09T05:30:03.261Z,6.80
2018-08-09T05:35:08.179Z,6.55
2018-08-09T05:40:13.211Z,6.58
2018-08-09T05:45:18.070Z,7.40
2018-08-09T05:50:22.731Z,7.08
2018-08-09T05:55:27.291Z,6.55
2018-08-09T06:00:32.022Z,6.00
2018-08-09T06:05:36.821Z,7.10
2018-08-09T06:10:42.066Z,6.97
2018-08-09T06:15:46.891Z,7.55
2018-08-09T06:20:51.521Z,7.17
2018-08-09T06:25:56.634Z,6.87
2018-08-09T06:31:02.011Z,8.25
2018-08-09T06:36:06.933Z,9.03
2018-08-09T06:41:11.806Z,8.70
2018-08-09T06:46:16.734Z,8.63
2018-08-09T06:51:21.330Z,8.73
2018-08-09T06:56:26.263Z,9.20
2018-08-09T07:01:31.023Z,9.78
2018-08-09T07:06:35.970Z,8.83
2018-08-09T07:11:40.498Z,9.03
2018-08-09T07:16:45.243Z,8.93
2018-08-09T07:21:49.956Z,9.45
2018-08-09T07:26:54.716Z,9.65
2018-08-09T07:32:00.773Z,9.65
2018-08-09T07:37:07.159Z,9.53
2018-08-09T07:42:12.003Z,9.78
2018-08-09T07:47:17.444Z,10.40
2018-08-09T07:52:23.059Z,9.73
2018-08-09T07:57:27.847Z,9.53
2018-08-09T08:02:32.557Z,10.13
2018-08-09T08:07:37.778Z,9.85
2018-08-09T08:12:42.434Z,9.58
2018-08-09T08:17:47.295Z,9.53
2018-08-09T08:22:52.049Z,9.75
2018-08-09T08:27:56.838Z,9.48
2018-08-09T08:33:01.584Z,10.65
2018-08-09T08:38:06.958Z,9.35
2018-08-09T08:43:12.323Z,8.93
2018-08-09T08:48:17.359Z,17.62
2018-08-09T08:53:22.324Z,9.03
2018-08-09T08:58:27.234Z,8.65
2018-08-09T09:03:31.832Z,7.05
2018-08-09T09:08:36.792Z,7.92
2018-08-09T09:13:41.618Z,6.15
2018-08-09T09:18:46.471Z,4.65
2018-08-09T09:23:52.447Z,5.10
2018-08-09T09:28:57.297Z,4.78
2018-08-09T09:34:02.136Z,5.37
2018-08-09T09:39:09.344Z,5.22
2018-08-09T09:44:14.253Z,5.60
2018-08-09T09:49:19.027Z,4.83
2018-08-09T09:54:23.814Z,4.70
2018-08-09T09:59:28.778Z,4.78
2018-08-09T10:04:33.349Z,4.97
2018-08-09T10:09:38.075Z,4.95
2018-08-09T10:14:43.055Z,4.75
2018-08-09T10:19:47.876Z,6.17
2018-08-09T10:24:52.542Z,4.03
2018-08-09T10:29:57.499Z,5.50
2018-08-09T10:35:02.163Z,4.55
2018-08-09T10:40:07.152Z,3.70
2018-08-09T10:45:12.907Z,4.28
2018-08-09T10:50:17.672Z,5.12
2018-08-09T10:55:22.395Z,4.65
2018-08-09T11:00:27.363Z,5.15
2018-08-09T11:05:32.037Z,5.85
2018-08-09T11:10:36.942Z,6.37
2018-08-09T11:15:41.448Z,6.85
2018-08-09T11:20:46.066Z,5.53
2018-08-09T11:25:51.546Z,5.00
2018-08-09T11:30:57.814Z,4.25
2018-08-09T11:36:02.631Z,4.10
2018-08-09T11:41:07.430Z,3.45
2018-08-09T11:46:12.130Z,3.00
2018-08-09T11:51:16.849Z,3.37
2018-08-09T11:56:21.505Z,3.00
2018-08-09T12:01:26.556Z,2.80
2018-08-09T12:06:31.368Z,3.95
2018-08-09T12:11:36.530Z,4.33
2018-08-09T12:16:41.293Z,4.50
2018-08-09T12:21:46.929Z,3.58
2018-08-09T12:26:51.807Z,4.80
2018-08-09T12:31:56.592Z,4.42
2018-08-09T12:37:01.858Z,3.83
2018-08-09T12:42:06.824Z,4.40
2018-08-09T12:47:11.522Z,4.05
2018-08-09T12:52:16.147Z,3.72
2018-08-09T12:57:20.788Z,2.87
2018-08-09T13:02:25.540Z,3.60
2018-08-09T13:07:30.387Z,2.70
2018-08-09T13:12:35.311Z,2.58
2018-08-09T13:17:40.327Z,2.62
2018-08-09T13:22:46.196Z,3.27
2018-08-09T13:27:51.033Z,3.22
2018-08-09T13:32:55.726Z,3.65
2018-08-09T13:38:00.527Z,3.50
2018-08-09T13:43:06.316Z,4.00
2018-08-09T13:48:11.526Z,3.87
2018-08-09T13:53:17.175Z,3.45
2018-08-09T13:58:22.079Z,3.65
2018-08-09T14:03:27.484Z,4.08
2018-08-09T14:08:32.300Z,4.60
2018-08-09T14:13:37.265Z,2.90
2018-08-09T14:18:41.977Z,2.90
2018-08-09T14:23:46.956Z,3.08
2018-08-09T14:28:51.879Z,2.75
2018-08-09T14:33:57.330Z,2.70
2018-08-09T14:39:02.054Z,2.83
2018-08-09T14:44:07.348Z,3.15
2018-08-09T14:49:13.077Z,3.50
2018-08-09T14:54:17.932Z,3.33
2018-08-09T14:59:23.358Z,3.00
2018-08-09T15:04:28.343Z,2.70
2018-08-09T15:09:33.347Z,3.00
2018-08-09T15:14:38.524Z,2.87
2018-08-09T15:19:43.393Z,2.90
2018-08-09T15:24:48.003Z,2.62
2018-08-09T15:29:52.649Z,3.00
2018-08-09T15:34:57.474Z,2.37
2018-08-09T15:40:02.212Z,2.40
2018-08-09T15:45:08.271Z,3.20
2018-08-09T15:50:16.376Z,4.10
2018-08-09T15:55:21.060Z,2.50
2018-08-09T16:00:25.804Z,3.47
2018-08-09T16:05:30.988Z,3.50
2018-08-09T16:10:35.821Z,3.20
2018-08-09T16:15:41.146Z,2.35
2018-08-09T16:20:45.896Z,2.77
2018-08-09T16:25:50.593Z,3.10
2018-08-09T16:30:55.486Z,2.70
2018-08-09T16:36:00.456Z,2.55
2018-08-09T16:41:05.159Z,3.10
2018-08-09T16:46:09.882Z,3.00
2018-08-09T16:51:14.649Z,2.90
2018-08-09T16:56:19.472Z,2.55
2018-08-09T17:01:24.182Z,2.95
2018-08-09T17:06:29.050Z,3.02
2018-08-09T17:11:34.651Z,2.40
2018-08-09T17:16:39.570Z,3.27
2018-08-09T17:21:44.485Z,3.60
2018-08-09T17:26:49.923Z,3.27
2018-08-09T17:31:55.280Z,2.12
2018-08-09T17:37:00.043Z,2.75
2018-08-09T17:42:05.023Z,2.08
2018-08-09T17:47:09.934Z,1.77
2018-08-09T17:52:14.867Z,1.77
2018-08-09T17:57:19.901Z,1.22
2018-08-09T18:02:24.855Z,1.95
2018-08-09T18:07:30.166Z,1.90
2018-08-09T18:12:34.899Z,2.10
2018-08-09T18:17:39.664Z,2.17
2018-08-09T18:22:45.212Z,2.22
2018-08-09T18:27:50.145Z,1.62
2018-08-09T18:32:54.983Z,1.40
2018-08-09T18:37:59.847Z,1.52
2018-08-09T18:43:05.928Z,1.35
2018-08-09T18:48:10.811Z,2.20
2018-08-09T18:53:15.708Z,2.12
2018-08-09T18:58:20.580Z,2.10
2018-08-09T19:03:25.418Z,1.70
2018-08-09T19:08:30.140Z,2.00
2018-08-09T19:13:34.847Z,2.20
2018-08-09T19:18:39.697Z,1.85
2018-08-09T19:23:44.391Z,1.72
2018-08-09T19:28:49.331Z,1.57
2018-08-09T19:33:54.391Z,1.57
2018-08-09T19:38:59.446Z,1.85
2018-08-09T19:44:04.368Z,2.02
2018-08-09T19:49:09.215Z,2.25
2018-08-09T19:54:14.508Z,2.00
2018-08-09T19:59:19.283Z,1.87
2018-08-09T20:04:24.239Z,1.70
2018-08-09T20:09:28.935Z,1.70
2018-08-09T20:14:33.893Z,1.80
2018-08-09T20:19:38.851Z,1.72
2018-08-09T20:24:44.435Z,2.25
2018-08-09T20:29:49.424Z,1.75
2018-08-09T20:34:54.183Z,1.80
2018-08-09T20:39:59.003Z,2.08
2018-08-09T20:45:05.004Z,2.25
2018-08-09T20:50:13.268Z,1.90
2018-08-09T20:55:17.935Z,1.90
2018-08-09T21:00:27.442Z,1.98
2018-08-09T21:05:33.587Z,1.70
2018-08-09T21:10:38.905Z,1.92
2018-08-09T21:15:44.669Z,2.08
2018-08-09T21:20:49.519Z,1.98
2018-08-09T21:25:54.749Z,2.02
2018-08-09T21:30:59.413Z,1.90
2018-08-09T21:36:04.115Z,1.80
2018-08-09T21:41:08.952Z,2.02
2018-08-09T21:46:13.625Z,2.10
2018-08-09T21:51:18.337Z,2.20
2018-08-09T21:56:23.163Z,2.17
2018-08-09T22:01:28.386Z,2.77
2018-08-09T22:06:38.406Z,2.22
2018-08-09T22:11:48.267Z,2.10
2018-08-09T22:16:58.732Z,2.37
2018-08-09T22:22:08.644Z,2.20
2018-08-09T22:27:13.292Z,2.33
2018-08-09T22:32:18.956Z,2.40
2018-08-09T22:37:23.886Z,2.17
2018-08-09T22:42:28.659Z,2.52
2018-08-09T22:47:33.355Z,2.52
2018-08-09T22:52:38.200Z,2.05
2018-08-09T22:57:43.755Z,2.92
2018-08-09T23:02:48.791Z,2.52
2018-08-09T23:07:53.470Z,2.70
2018-08-09T23:12:58.143Z,2.50
2018-08-09T23:18:03.299Z,2.60
2018-08-09T23:23:08.250Z,2.02
2018-08-09T23:28:13.108Z,2.15
2018-08-09T23:33:21.344Z,2.52
2018-08-09T23:38:26.285Z,2.30
2018-08-09T23:43:31.510Z,2.35
2018-08-09T23:48:36.621Z,2.35
2018-08-09T23:53:41.582Z,2.08
2018-08-09T23:58:46.421Z,2.02
